KBGD

Details ICAO KBGD
Name HUTCHINSON CO
Region United States
Timezone America/Chicago (UTC-5.0)
Plans Departing 2
Arriving 4
Stats Elevation 3,055 ft / 931 m (AMSL)
Location 35.700749° -101.393734°
Runways 2
Magnetic Variation 5.970° E
Sunrise 2018-05-25 11:35:23 UTC / 2018-05-25 06:35:23 Local
Sunset 2018-05-26 01:52:34 UTC / 2018-05-25 20:52:34 Local
Advertisement - Login to hide

Runways

ID Width Length Bearing (true) Bearing (mag) Surface Threshold Offset Overrun Length
03 50 ft / 15 m 3,899 ft / 1,188 m 39.73° 33.76° Asphalt 0 ft / 0 m 0 ft / 0 m
17 100 ft / 30 m 6,313 ft / 1,924 m 178.38° 172.41° Asphalt 0 ft / 0 m 0 ft / 0 m
21 50 ft / 15 m 3,899 ft / 1,188 m 219.74° 213.77° Asphalt 0 ft / 0 m 0 ft / 0 m
35 100 ft / 30 m 6,313 ft / 1,924 m 358.38° 352.41° Asphalt 0 ft / 0 m 0 ft / 0 m

Map

Weather


0- 5 10 15 20 25 30 35+ Temperature / ° C

Clouds and Precipitation
Forecast for 2018-05-26 00:00 UTC. Updated 5 hours ago

Ground ~20,000 ft ~40,000 ft Winds

METAR

KBGD 260351Z AUTO 10007KT 10SM CLR 28/14 A2990 RMK AO2 SLP076 T02780139

TAF

Not found

Frequencies

Recorded 118.32 MHz ASOS
Approach 119.50 MHz AMARILLO APP/DEP
Unicom 123.00 MHz CTAF/UNICOM
Warning: Do not use this data for real-world aviation or navigation. No guarantee of current accuracy is given.